createdAt,value
2022-08-19T00:00:07.479Z,90.52
2022-08-19T00:02:34.259Z,91.21
2022-08-19T00:05:00.998Z,90.93
2022-08-19T00:07:27.826Z,90.28
2022-08-19T00:09:54.762Z,89.70
2022-08-19T00:12:24.266Z,89.75
2022-08-19T00:14:50.981Z,89.82
2022-08-19T00:17:17.627Z,89.73
2022-08-19T00:19:44.299Z,89.35
2022-08-19T00:22:11.027Z,89.31
2022-08-19T00:24:39.402Z,89.06
2022-08-19T00:27:25.981Z,88.87
2022-08-19T00:29:53.046Z,88.22
2022-08-19T00:32:20.175Z,88.57
2022-08-19T00:34:47.594Z,89.05
2022-08-19T00:37:14.294Z,89.28
2022-08-19T00:39:41.026Z,89.63
2022-08-19T00:42:07.752Z,90.42
2022-08-19T00:44:34.399Z,91.42
2022-08-19T00:47:01.251Z,90.91
2022-08-19T00:49:37.528Z,91.03
2022-08-19T00:52:15.013Z,91.20
2022-08-19T00:54:43.880Z,91.15
2022-08-19T00:57:15.921Z,91.13
2022-08-19T01:00:00.499Z,90.78
2022-08-19T01:02:31.889Z,90.80
2022-08-19T01:05:00.187Z,90.28
2022-08-19T01:07:26.957Z,90.05
2022-08-19T01:09:53.632Z,91.11
2022-08-19T01:12:21.219Z,91.08
2022-08-19T01:14:48.982Z,90.90
2022-08-19T01:17:17.177Z,90.75
2022-08-19T01:19:44.907Z,90.82
2022-08-19T01:22:31.414Z,90.68
2022-08-19T01:25:00.390Z,92.58
2022-08-19T01:27:29.593Z,93.57
2022-08-19T01:30:08.806Z,94.07
2022-08-19T01:32:35.905Z,94.56
2022-08-19T01:35:04.607Z,94.69
2022-08-19T01:37:43.391Z,95.10
2022-08-19T01:40:11.051Z,95.14
2022-08-19T01:42:38.004Z,94.68
2022-08-19T01:45:06.026Z,94.54
2022-08-19T01:47:32.668Z,94.25
2022-08-19T01:49:59.487Z,93.85
2022-08-19T01:52:26.107Z,93.77
2022-08-19T01:54:52.819Z,94.30
2022-08-19T01:57:19.678Z,93.59
2022-08-19T01:59:46.698Z,94.46
2022-08-19T02:02:13.387Z,93.92
2022-08-19T02:04:40.290Z,93.60
2022-08-19T02:07:08.963Z,93.66
2022-08-19T02:09:36.298Z,94.02
2022-08-19T02:12:03.606Z,94.03
2022-08-19T02:14:30.263Z,94.26
2022-08-19T02:16:57.015Z,95.14
2022-08-19T02:19:23.619Z,95.26
2022-08-19T02:21:50.273Z,96.62
2022-08-19T02:24:17.093Z,96.15
2022-08-19T02:26:43.773Z,95.60
2022-08-19T02:29:10.584Z,95.20
2022-08-19T02:31:37.349Z,95.27
2022-08-19T02:34:04.172Z,94.88
2022-08-19T02:36:31.308Z,94.32
2022-08-19T02:38:58.129Z,95.71
2022-08-19T02:41:27.896Z,96.51
2022-08-19T02:44:28.554Z,97.18
2022-08-19T02:46:44.349Z,97.83
2022-08-19T02:49:10.995Z,98.57
2022-08-19T02:51:41.276Z,98.43
2022-08-19T02:54:09.890Z,98.79
2022-08-19T02:56:38.732Z,98.91
2022-08-19T02:59:09.273Z,98.25
2022-08-19T03:01:40.684Z,97.65
2022-08-19T03:04:09.058Z,97.91
2022-08-19T03:06:40.568Z,98.16
2022-08-19T03:09:07.505Z,98.32
2022-08-19T03:11:34.754Z,98.92
2022-08-19T03:14:02.401Z,98.78
2022-08-19T03:16:33.521Z,99.30
2022-08-19T03:19:02.125Z,99.21
2022-08-19T03:21:32.004Z,99.50
2022-08-19T03:24:01.302Z,99.24
2022-08-19T03:26:28.477Z,99.07
2022-08-19T03:28:58.098Z,99.08
2022-08-19T03:31:45.588Z,99.28
2022-08-19T03:34:20.962Z,99.19
2022-08-19T03:36:48.660Z,99.71
2022-08-19T03:39:16.670Z,99.29
2022-08-19T03:41:46.446Z,99.50
2022-08-19T03:44:19.108Z,99.30
2022-08-19T03:46:48.900Z,99.36
2022-08-19T03:49:16.038Z,99.61
2022-08-19T03:51:44.966Z,99.69
2022-08-19T03:54:14.390Z,99.94
2022-08-19T03:56:43.029Z,100.00
2022-08-19T03:59:12.651Z,99.92
2022-08-19T04:01:39.384Z,99.69
2022-08-19T04:04:06.589Z,99.79
2022-08-19T04:06:36.264Z,99.82
2022-08-19T04:09:10.427Z,100.00
2022-08-19T04:11:47.595Z,99.54
2022-08-19T04:14:17.890Z,98.67
2022-08-19T04:16:45.868Z,98.00
2022-08-19T04:19:12.385Z,97.42
2022-08-19T04:21:39.084Z,96.61
2022-08-19T04:24:06.379Z,97.11
2022-08-19T04:26:37.135Z,96.35
2022-08-19T04:29:12.306Z,97.23
2022-08-19T04:31:41.840Z,97.40
2022-08-19T04:34:13.926Z,97.50
2022-08-19T04:36:42.342Z,98.72
2022-08-19T04:39:17.976Z,97.88
2022-08-19T04:42:04.276Z,98.35
2022-08-19T04:44:33.515Z,98.88
2022-08-19T04:47:11.389Z,98.11
2022-08-19T04:49:38.396Z,98.99
2022-08-19T04:52:05.076Z,98.45
2022-08-19T04:54:38.879Z,98.07
2022-08-19T04:57:09.574Z,98.82
2022-08-19T04:59:38.060Z,98.77
2022-08-19T05:02:05.380Z,97.06
2022-08-19T05:04:33.147Z,97.27
2022-08-19T05:07:00.811Z,96.74
2022-08-19T05:09:52.594Z,97.61
2022-08-19T05:12:16.555Z,98.29
2022-08-19T05:14:44.279Z,98.25
2022-08-19T05:17:27.084Z,99.10
2022-08-19T05:20:14.277Z,98.88
2022-08-19T05:22:42.080Z,98.13
2022-08-19T05:25:13.812Z,97.68
2022-08-19T05:27:42.349Z,96.58
2022-08-19T05:30:10.659Z,95.64
2022-08-19T05:32:38.182Z,95.13
2022-08-19T05:35:05.705Z,95.60
2022-08-19T05:37:32.559Z,95.87
2022-08-19T05:39:59.422Z,97.77
2022-08-19T05:42:27.512Z,98.12
2022-08-19T05:44:54.513Z,98.77
2022-08-19T05:47:21.426Z,98.97
2022-08-19T05:49:50.876Z,98.84
2022-08-19T05:52:19.627Z,97.90
2022-08-19T05:54:55.756Z,97.15
2022-08-19T05:57:23.909Z,97.64
2022-08-19T05:59:57.876Z,96.90
2022-08-19T06:02:29.704Z,96.79
2022-08-19T06:04:56.462Z,96.66
2022-08-19T06:07:23.319Z,96.00
2022-08-19T06:09:59.101Z,96.36
2022-08-19T06:12:31.593Z,94.73
2022-08-19T06:15:01.153Z,94.34
2022-08-19T06:17:31.453Z,94.55
2022-08-19T06:19:59.457Z,94.24
2022-08-19T06:22:26.934Z,93.58
2022-08-19T06:24:54.917Z,92.81
2022-08-19T06:27:22.620Z,93.03
2022-08-19T06:29:49.885Z,92.98
2022-08-19T06:32:19.140Z,92.63
2022-08-19T06:34:45.938Z,91.50
2022-08-19T06:37:13.026Z,91.78
2022-08-19T06:39:42.727Z,91.81
2022-08-19T06:42:12.432Z,90.56
2022-08-19T06:44:43.029Z,90.80
2022-08-19T06:47:14.885Z,90.91
2022-08-19T06:49:50.275Z,90.18
2022-08-19T06:52:18.479Z,90.27
2022-08-19T06:54:55.435Z,90.40
2022-08-19T06:57:25.233Z,90.60
2022-08-19T06:59:52.475Z,91.25
2022-08-19T07:02:20.206Z,91.45
2022-08-19T07:04:47.073Z,91.74
2022-08-19T07:07:20.270Z,91.15
2022-08-19T07:09:57.955Z,90.98
2022-08-19T07:12:25.411Z,90.41
2022-08-19T07:14:53.725Z,90.88
2022-08-19T07:17:21.805Z,91.08
2022-08-19T07:19:48.650Z,90.62
2022-08-19T07:22:15.930Z,90.94
2022-08-19T07:24:51.245Z,91.55
2022-08-19T07:27:18.500Z,91.80
2022-08-19T07:29:55.978Z,91.89
2022-08-19T07:32:26.903Z,92.41
2022-08-19T07:34:53.656Z,92.16
2022-08-19T07:37:20.324Z,92.78
2022-08-19T07:39:47.043Z,92.28
2022-08-19T07:42:14.693Z,92.28
2022-08-19T07:44:42.248Z,92.43
2022-08-19T07:47:49.995Z,91.53
2022-08-19T07:50:08.894Z,91.28
2022-08-19T07:52:37.241Z,91.00
2022-08-19T07:55:05.814Z,90.28
2022-08-19T07:57:32.584Z,89.83
2022-08-19T08:00:00.006Z,88.49
2022-08-19T08:02:26.789Z,89.72
2022-08-19T08:05:12.083Z,89.25
2022-08-19T08:07:58.382Z,89.20
2022-08-19T08:10:26.099Z,88.65
2022-08-19T08:13:10.161Z,89.73
2022-08-19T08:15:42.604Z,89.15
2022-08-19T08:18:10.563Z,87.67
2022-08-19T08:20:37.230Z,87.37
2022-08-19T08:23:22.720Z,89.03
2022-08-19T08:25:50.249Z,88.09
2022-08-19T08:28:18.235Z,86.95
2022-08-19T08:30:46.793Z,86.09
2022-08-19T08:35:43.262Z,85.20
2022-08-19T08:38:10.309Z,86.12
2022-08-19T08:40:42.706Z,86.59
2022-08-19T08:43:32.963Z,86.58
2022-08-19T08:46:31.170Z,86.63
2022-08-19T08:49:12.999Z,85.63
2022-08-19T08:51:56.220Z,85.15
2022-08-19T08:54:40.282Z,85.08
2022-08-19T08:57:20.907Z,84.84
2022-08-19T08:59:52.731Z,85.36
2022-08-19T09:02:19.836Z,85.13
2022-08-19T09:04:47.026Z,84.78
2022-08-19T09:07:47.485Z,84.98
2022-08-19T09:10:35.578Z,84.71
2022-08-19T09:13:26.310Z,84.60
2022-08-19T09:16:04.254Z,83.80
2022-08-19T09:18:41.931Z,84.45
2022-08-19T09:21:09.759Z,83.90
2022-08-19T09:23:37.926Z,83.67
2022-08-19T09:26:10.928Z,83.62
2022-08-19T09:28:38.511Z,82.92
2022-08-19T09:31:05.894Z,81.54
2022-08-19T09:33:32.560Z,80.52
2022-08-19T09:36:08.526Z,80.44
2022-08-19T09:38:37.099Z,80.29
2022-08-19T09:41:14.608Z,80.19
2022-08-19T09:43:47.784Z,80.97
2022-08-19T09:46:18.364Z,81.23
2022-08-19T09:48:49.330Z,81.50
2022-08-19T09:51:18.658Z,81.83
2022-08-19T09:53:54.907Z,81.30
2022-08-19T09:56:23.877Z,81.90
2022-08-19T09:58:52.057Z,82.13
2022-08-19T10:01:22.310Z,81.66
2022-08-19T10:03:55.391Z,82.82
2022-08-19T10:06:46.445Z,82.94
2022-08-19T10:09:12.159Z,83.54
2022-08-19T10:11:49.850Z,83.70
2022-08-19T10:14:23.581Z,83.63
2022-08-19T10:16:52.768Z,83.72
2022-08-19T10:19:25.798Z,83.50
2022-08-19T10:21:54.309Z,83.51
2022-08-19T10:24:28.661Z,83.29
2022-08-19T10:26:59.133Z,83.65
2022-08-19T10:29:32.273Z,84.20
2022-08-19T10:32:09.659Z,85.71
2022-08-19T10:34:48.898Z,87.16
2022-08-19T10:37:23.730Z,87.04
2022-08-19T10:39:56.173Z,86.32
2022-08-19T10:42:22.955Z,85.55
2022-08-19T10:44:49.633Z,85.28
2022-08-19T10:47:25.597Z,85.48
2022-08-19T10:50:15.462Z,84.61
2022-08-19T10:52:50.396Z,83.97
2022-08-19T10:55:41.581Z,84.00
2022-08-19T10:58:17.766Z,83.45
2022-08-19T11:00:51.779Z,82.56
2022-08-19T11:03:19.600Z,81.62
2022-08-19T11:05:46.230Z,80.85
2022-08-19T11:08:23.809Z,80.32
2022-08-19T11:11:01.647Z,80.17
2022-08-19T11:13:29.498Z,78.67
2022-08-19T11:16:06.574Z,78.13
2022-08-19T11:18:39.498Z,79.01
2022-08-19T11:21:28.443Z,79.27
2022-08-19T11:23:58.363Z,79.06
2022-08-19T11:26:26.459Z,78.72
2022-08-19T11:28:55.448Z,78.82
2022-08-19T11:31:28.957Z,78.51
2022-08-19T11:34:01.163Z,79.71
2022-08-19T11:36:28.633Z,80.01
2022-08-19T11:38:55.693Z,80.09
2022-08-19T11:41:24.350Z,80.27
2022-08-19T11:43:53.963Z,79.57
2022-08-19T11:46:21.879Z,79.20
2022-08-19T11:48:50.680Z,79.33
2022-08-19T11:51:23.218Z,79.12
2022-08-19T11:53:51.370Z,79.17
2022-08-19T11:56:19.750Z,78.39
2022-08-19T11:58:46.788Z,78.41
2022-08-19T12:01:16.936Z,77.55
2022-08-19T12:03:45.894Z,76.94
2022-08-19T12:06:16.200Z,77.17
2022-08-19T12:08:44.449Z,76.16
2022-08-19T12:11:13.515Z,76.12
2022-08-19T12:13:40.923Z,75.98
2022-08-19T12:16:17.149Z,75.03
2022-08-19T12:18:47.614Z,73.27
2022-08-19T12:21:15.451Z,70.40
2022-08-19T12:23:43.120Z,71.14
2022-08-19T12:26:10.986Z,71.04
2022-08-19T12:28:38.793Z,72.34
2022-08-19T12:31:05.610Z,72.04
2022-08-19T12:33:33.059Z,72.91
2022-08-19T12:36:07.783Z,73.20
2022-08-19T12:38:35.569Z,73.51
2022-08-19T12:41:04.328Z,73.62
2022-08-19T12:43:31.305Z,74.28
2022-08-19T12:45:58.212Z,76.82
2022-08-19T12:48:33.420Z,74.34
2022-08-19T12:51:06.381Z,71.99
2022-08-19T12:53:33.050Z,70.34
2022-08-19T12:56:01.397Z,67.64
2022-08-19T12:58:29.947Z,66.73
2022-08-19T13:00:56.698Z,64.72
2022-08-19T13:03:28.396Z,64.58
2022-08-19T13:05:55.029Z,63.84
2022-08-19T13:08:21.722Z,64.17
2022-08-19T13:10:48.355Z,64.40
2022-08-19T13:13:15.056Z,64.25
2022-08-19T13:15:43.730Z,63.51
2022-08-19T13:18:11.851Z,63.45
2022-08-19T13:20:41.608Z,63.24
2022-08-19T13:23:09.363Z,63.06
2022-08-19T13:25:37.125Z,63.21
2022-08-19T13:28:05.224Z,64.09
2022-08-19T13:30:50.191Z,61.85
2022-08-19T13:33:17.865Z,61.33
2022-08-19T13:35:46.588Z,58.50
2022-08-19T13:38:14.761Z,58.97
2022-08-19T13:40:42.397Z,57.94
2022-08-19T13:43:13.617Z,56.84
2022-08-19T13:45:51.286Z,55.88
2022-08-19T13:48:19.261Z,54.92
2022-08-19T13:50:48.229Z,57.87
2022-08-19T13:53:15.208Z,58.36
2022-08-19T13:55:43.727Z,57.72
2022-08-19T13:58:11.692Z,56.58
2022-08-19T14:00:43.906Z,59.88
2022-08-19T14:03:10.664Z,60.09
2022-08-19T14:05:37.767Z,60.13
2022-08-19T14:08:04.763Z,59.42
2022-08-19T14:10:32.595Z,59.47
2022-08-19T14:13:01.735Z,54.89
2022-08-19T14:15:29.327Z,53.00
2022-08-19T14:17:56.366Z,53.96
2022-08-19T14:20:25.784Z,54.21
2022-08-19T14:22:53.839Z,55.85
2022-08-19T14:25:23.679Z,57.04
2022-08-19T14:27:50.693Z,57.44
2022-08-19T14:30:26.472Z,58.69
2022-08-19T14:32:53.511Z,56.27
2022-08-19T14:35:20.181Z,57.30
2022-08-19T14:37:47.388Z,58.38
2022-08-19T14:40:17.201Z,58.69
2022-08-19T14:42:44.394Z,58.68
2022-08-19T14:45:12.610Z,59.30
2022-08-19T14:47:40.914Z,58.78
2022-08-19T14:50:17.745Z,59.12
2022-08-19T14:52:44.743Z,58.45
2022-08-19T14:55:11.464Z,56.96
2022-08-19T14:57:38.093Z,52.06
2022-08-19T15:00:05.493Z,50.20
2022-08-19T15:02:33.798Z,47.44
2022-08-19T15:05:02.804Z,44.47
2022-08-19T15:07:30.320Z,45.49
2022-08-19T15:09:57.103Z,47.23
2022-08-19T15:12:24.987Z,48.77
2022-08-19T15:14:52.984Z,51.38
2022-08-19T15:17:43.739Z,53.56
2022-08-19T15:20:13.618Z,54.07
2022-08-19T15:22:40.950Z,52.76
2022-08-19T15:25:11.743Z,54.06
2022-08-19T15:27:40.652Z,54.58
2022-08-19T15:30:09.468Z,55.31
2022-08-19T15:32:37.279Z,57.33
2022-08-19T15:35:06.774Z,58.49
2022-08-19T15:37:34.501Z,59.17
2022-08-19T15:40:07.531Z,60.05
2022-08-19T15:42:37.516Z,61.49
2022-08-19T15:45:06.052Z,64.56
2022-08-19T15:47:35.151Z,67.09
2022-08-19T15:50:14.979Z,68.57
2022-08-19T15:52:50.650Z,68.72
2022-08-19T15:55:33.323Z,73.78
2022-08-19T15:58:28.447Z,77.73
2022-08-19T16:01:20.874Z,79.44
2022-08-19T16:04:13.867Z,79.56
2022-08-19T16:06:48.476Z,79.38
2022-08-19T16:09:17.158Z,77.46
2022-08-19T16:11:46.477Z,77.66
2022-08-19T16:14:18.530Z,74.18
2022-08-19T16:16:47.301Z,75.57
2022-08-19T16:19:17.247Z,74.98
2022-08-19T16:21:50.511Z,73.87
2022-08-19T16:24:19.423Z,73.13
2022-08-19T16:26:46.592Z,73.49
2022-08-19T16:29:15.055Z,75.54
2022-08-19T16:31:55.993Z,75.14
2022-08-19T16:34:24.543Z,74.72
2022-08-19T16:36:51.529Z,75.57
2022-08-19T16:39:18.436Z,75.70
2022-08-19T16:41:46.135Z,76.05
2022-08-19T16:44:15.437Z,76.36
2022-08-19T16:46:42.472Z,76.87
2022-08-19T16:49:11.399Z,77.46
2022-08-19T16:51:39.672Z,77.34
2022-08-19T16:54:06.924Z,77.28
2022-08-19T16:56:34.559Z,78.24
2022-08-19T16:59:01.817Z,77.63
2022-08-19T17:01:28.908Z,77.40
2022-08-19T17:03:56.670Z,77.37
2022-08-19T17:06:26.103Z,72.60
2022-08-19T17:08:55.431Z,66.83
2022-08-19T17:11:24.378Z,67.32
2022-08-19T17:13:51.441Z,65.94
2022-08-19T17:16:24.968Z,68.81
2022-08-19T17:18:53.281Z,70.92
2022-08-19T17:21:21.682Z,72.27
2022-08-19T17:23:49.072Z,73.36
2022-08-19T17:26:18.441Z,75.24
2022-08-19T17:28:49.633Z,75.80
2022-08-19T17:31:18.504Z,76.87
2022-08-19T17:33:48.232Z,77.30
2022-08-19T17:36:23.548Z,77.49
2022-08-19T17:38:51.962Z,78.54
2022-08-19T17:41:19.067Z,78.53
2022-08-19T17:43:45.759Z,79.15
2022-08-19T17:46:20.473Z,80.14
2022-08-19T17:48:57.633Z,80.34
2022-08-19T17:51:33.325Z,80.44
2022-08-19T17:54:00.570Z,81.05
2022-08-19T17:56:28.777Z,80.77
2022-08-19T17:58:59.884Z,80.96
2022-08-19T18:01:30.042Z,81.43
2022-08-19T18:04:07.418Z,81.63
2022-08-19T18:06:36.613Z,82.11
2022-08-19T18:09:05.563Z,82.08
2022-08-19T18:11:32.920Z,82.38
2022-08-19T18:14:00.362Z,82.87
2022-08-19T18:16:26.999Z,82.98
2022-08-19T18:18:54.784Z,83.03
2022-08-19T18:21:22.111Z,83.00
2022-08-19T18:23:48.844Z,83.47
2022-08-19T18:26:15.733Z,83.42
2022-08-19T18:28:50.019Z,83.32
2022-08-19T18:31:17.315Z,83.19
2022-08-19T18:33:45.223Z,83.62
2022-08-19T18:36:12.231Z,84.12
2022-08-19T18:38:57.126Z,83.77
2022-08-19T18:41:43.511Z,83.34
2022-08-19T18:44:29.058Z,83.67
2022-08-19T18:47:14.755Z,82.95
2022-08-19T18:49:41.428Z,83.41
2022-08-19T18:52:08.114Z,84.23
2022-08-19T18:54:35.705Z,84.94
2022-08-19T18:57:03.336Z,86.46
2022-08-19T18:59:30.371Z,85.11
2022-08-19T19:01:59.188Z,86.92
2022-08-19T19:04:35.804Z,87.14
2022-08-19T19:07:03.366Z,88.05
2022-08-19T19:09:30.064Z,87.83
2022-08-19T19:11:59.904Z,90.77
2022-08-19T19:14:48.219Z,90.43
2022-08-19T19:17:15.940Z,90.58
2022-08-19T19:19:43.998Z,91.48
2022-08-19T19:22:18.810Z,92.60
2022-08-19T19:24:45.967Z,93.65
2022-08-19T19:27:14.591Z,94.19
2022-08-19T19:29:42.536Z,93.63
2022-08-19T19:32:16.573Z,94.01
2022-08-19T19:34:43.296Z,94.58
2022-08-19T19:37:10.922Z,95.12
2022-08-19T19:39:46.446Z,95.47
2022-08-19T19:42:20.037Z,96.63
2022-08-19T19:44:50.220Z,96.85
2022-08-19T19:47:18.985Z,96.16
2022-08-19T19:50:12.714Z,96.35
2022-08-19T19:52:34.310Z,95.89
2022-08-19T19:55:01.526Z,95.40
2022-08-19T19:57:30.394Z,95.57
2022-08-19T19:59:57.116Z,95.69
2022-08-19T20:02:25.173Z,95.09
2022-08-19T20:04:52.200Z,95.71
2022-08-19T20:07:39.030Z,97.12
2022-08-19T20:10:05.938Z,98.00
2022-08-19T20:12:32.604Z,98.89
2022-08-19T20:14:59.278Z,99.29
2022-08-19T20:17:26.938Z,100.00
2022-08-19T20:19:53.762Z,100.00
2022-08-19T20:22:20.428Z,100.00
2022-08-19T20:24:48.400Z,100.00
2022-08-19T20:27:15.032Z,100.00
2022-08-19T20:29:44.438Z,100.00
2022-08-19T20:32:12.500Z,100.00
2022-08-19T20:34:40.902Z,100.00
2022-08-19T20:37:11.279Z,100.00
2022-08-19T20:39:38.188Z,100.00
2022-08-19T20:42:05.356Z,100.00
2022-08-19T20:44:32.607Z,100.00
2022-08-19T20:47:03.361Z,100.00
2022-08-19T20:49:30.560Z,100.00
2022-08-19T20:51:58.444Z,100.00
2022-08-19T20:54:26.095Z,100.00
2022-08-19T20:56:53.061Z,100.00
2022-08-19T20:59:20.733Z,100.00
2022-08-19T21:01:48.812Z,100.00
2022-08-19T21:04:15.498Z,100.00
2022-08-19T21:06:45.266Z,100.00
2022-08-19T21:09:13.742Z,100.00
2022-08-19T21:11:40.563Z,100.00
2022-08-19T21:14:07.990Z,100.00
2022-08-19T21:16:34.684Z,100.00
2022-08-19T21:19:02.054Z,100.00
2022-08-19T21:21:28.955Z,100.00
2022-08-19T21:23:55.644Z,100.00
2022-08-19T21:26:22.438Z,100.00
2022-08-19T21:28:49.059Z,100.00
2022-08-19T21:31:17.809Z,100.00
2022-08-19T21:33:44.945Z,100.00
2022-08-19T21:36:11.654Z,100.00
2022-08-19T21:38:38.456Z,100.00
2022-08-19T21:41:06.562Z,100.00
2022-08-19T21:43:37.016Z,100.00
2022-08-19T21:46:04.545Z,100.00
2022-08-19T21:48:31.214Z,100.00
2022-08-19T21:50:57.852Z,100.00
2022-08-19T21:53:24.505Z,100.00
2022-08-19T21:55:53.762Z,100.00
2022-08-19T21:58:30.146Z,100.00
2022-08-19T22:00:59.253Z,100.00
2022-08-19T22:03:26.818Z,100.00
2022-08-19T22:05:53.671Z,100.00
2022-08-19T22:08:20.416Z,100.00
2022-08-19T22:10:47.102Z,100.00
2022-08-19T22:13:14.617Z,100.00
2022-08-19T22:15:42.442Z,100.00
2022-08-19T22:18:09.063Z,100.00
2022-08-19T22:20:36.674Z,100.00
2022-08-19T22:23:07.132Z,100.00
2022-08-19T22:25:36.896Z,100.00
2022-08-19T22:28:06.973Z,100.00
2022-08-19T22:30:39.088Z,100.00
2022-08-19T22:33:12.492Z,100.00
2022-08-19T22:35:41.259Z,100.00
2022-08-19T22:38:10.835Z,100.00
2022-08-19T22:40:40.755Z,100.00
2022-08-19T22:43:14.972Z,100.00
2022-08-19T22:45:42.799Z,100.00
2022-08-19T22:48:10.985Z,100.00
2022-08-19T22:50:39.074Z,100.00
2022-08-19T22:53:09.418Z,100.00
2022-08-19T22:55:39.393Z,100.00
2022-08-19T22:58:06.344Z,100.00
2022-08-19T23:00:33.848Z,100.00
2022-08-19T23:03:02.095Z,100.00
2022-08-19T23:05:29.539Z,100.00
2022-08-19T23:07:58.085Z,100.00
2022-08-19T23:10:27.998Z,100.00
2022-08-19T23:12:57.959Z,100.00
2022-08-19T23:15:28.049Z,100.00
2022-08-19T23:18:00.903Z,100.00
2022-08-19T23:20:32.931Z,100.00
2022-08-19T23:23:03.322Z,100.00
2022-08-19T23:25:32.852Z,100.00
2022-08-19T23:28:18.087Z,100.00
2022-08-19T23:30:47.342Z,100.00
2022-08-19T23:33:24.234Z,100.00
2022-08-19T23:35:59.151Z,100.00
2022-08-19T23:38:28.109Z,100.00
2022-08-19T23:40:59.750Z,100.00
2022-08-19T23:43:29.664Z,100.00
2022-08-19T23:46:01.980Z,100.00
2022-08-19T23:48:37.430Z,100.00
2022-08-19T23:51:07.830Z,100.00
2022-08-19T23:53:35.829Z,100.00
2022-08-19T23:56:02.619Z,100.00
2022-08-19T23:58:30.125Z,100.00
